Time;durP1;ratioP1;P1;durP2;ratioP2;P2;SDS_P1;SDS_P2;PMS_P1;PMS_P2;Temp;Humidity;BMP_temperature;BMP_pressure;BME280_temperature;BME280_humidity;BME280_pressure;Samples;Min_cycle;Max_cycle;Signal;HPM_P1;HPM_P2
2023/01/05 00:01:14;;;;;;;48.95;33.50;;;4.90;99.90;;;;;;4895503;29;20115;-75
2023/01/05 00:03:40;;;;;;;52.17;35.20;;;4.90;99.90;;;;;;4894250;29;20501;-74
2023/01/05 00:06:11;;;;;;;50.50;33.58;;;5.00;99.90;;;;;;4892078;29;20535;-75
2023/01/05 00:08:38;;;;;;;53.30;33.15;;;5.00;99.90;;;;;;4888102;29;20048;-74
2023/01/05 00:22:33;;;;;;;52.13;32.80;;;5.10;99.90;;;;;;4829161;29;20159;-75
2023/01/05 00:25:04;;;;;;;59.28;33.20;;;5.10;99.90;;;;;;4839778;29;20450;-75
2023/01/05 00:27:30;;;;;;;44.72;30.83;;;5.10;99.90;;;;;;4839504;29;20485;-73
2023/01/05 00:29:57;;;;;;;78.70;49.28;;;5.00;99.90;;;;;;4824288;29;20498;-73
2023/01/05 00:32:24;;;;;;;100.28;60.05;;;5.00;99.90;;;;;;4839587;29;20065;-74
2023/01/05 00:34:55;;;;;;;60.63;40.40;;;5.00;99.90;;;;;;4846334;29;20487;-74
2023/01/05 00:37:23;;;;;;;62.63;46.83;;;4.90;99.90;;;;;;4858171;29;20129;-73
2023/01/05 00:39:49;;;;;;;68.55;45.70;;;4.80;99.90;;;;;;4858420;29;20207;-73
2023/01/05 00:42:15;;;;;;;77.60;50.78;;;4.70;99.90;;;;;;4858077;29;20116;-74
2023/01/05 00:44:41;;;;;;;76.15;50.80;;;4.70;99.90;;;;;;4857746;29;20049;-74
2023/01/05 00:47:07;;;;;;;71.25;46.60;;;4.60;99.90;;;;;;4857829;29;20093;-74
2023/01/05 00:49:33;;;;;;;84.20;55.85;;;4.50;99.90;;;;;;4857918;29;20397;-77
2023/01/05 00:51:59;;;;;;;82.20;53.03;;;4.40;99.90;;;;;;4898870;29;20071;-75
2023/01/05 00:54:25;;;;;;;69.68;47.15;;;4.30;99.90;;;;;;4903677;29;20044;-75
2023/01/05 00:56:51;;;;;;;71.28;47.60;;;4.30;99.90;;;;;;4915983;29;20111;-76
2023/01/05 00:59:17;;;;;;;76.20;52.20;;;4.20;99.90;;;;;;4898732;29;20119;-75
2023/01/05 01:01:48;;;;;;;87.93;58.63;;;4.20;99.90;;;;;;4901030;29;20036;-74
2023/01/05 01:04:15;;;;;;;82.97;54.10;;;4.20;99.90;;;;;;4915705;29;20048;-75
2023/01/05 01:06:41;;;;;;;70.30;47.42;;;4.20;99.90;;;;;;4915981;29;20567;-75
2023/01/05 01:09:07;;;;;;;74.53;50.17;;;4.10;99.90;;;;;;4914613;29;20024;-75
2023/01/05 01:11:33;;;;;;;82.35;51.03;;;4.10;99.90;;;;;;4915962;29;20059;-75
2023/01/05 01:13:59;;;;;;;111.97;73.05;;;4.00;99.90;;;;;;4915618;29;20059;-75
2023/01/05 01:16:25;;;;;;;131.75;82.15;;;4.00;99.90;;;;;;4896041;29;20047;-75
2023/01/05 01:18:50;;;;;;;112.47;72.95;;;4.10;99.90;;;;;;4915871;29;20040;-74
2023/01/05 01:21:16;;;;;;;133.57;87.40;;;4.00;99.90;;;;;;4912773;29;20028;-74
2023/01/05 01:23:43;;;;;;;114.78;78.40;;;4.00;99.90;;;;;;4895949;29;20054;-74
2023/01/05 01:26:12;;;;;;;111.50;72.47;;;4.00;99.90;;;;;;4905187;29;20047;-74
2023/01/05 01:28:38;;;;;;;107.30;73.80;;;4.00;99.90;;;;;;4892564;29;20493;-76
2023/01/05 01:31:05;;;;;;;112.50;71.35;;;4.00;99.90;;;;;;4909867;29;20032;-76
2023/01/05 01:33:32;;;;;;;95.25;59.35;;;4.00;99.90;;;;;;4913596;29;20115;-74
2023/01/05 01:35:58;;;;;;;94.45;61.55;;;4.10;99.90;;;;;;4901106;29;20054;-75
2023/01/05 01:38:24;;;;;;;81.60;53.90;;;4.10;99.90;;;;;;4902946;29;20031;-74
2023/01/05 01:40:50;;;;;;;75.97;49.72;;;4.10;99.90;;;;;;4900610;29;20046;-75
2023/01/05 01:43:37;;;;;;;95.75;56.97;;;4.00;99.90;;;;;;4910062;29;20172;-74
2023/01/05 01:46:03;;;;;;;79.57;54.35;;;4.00;99.90;;;;;;4911551;29;20044;-74
2023/01/05 01:48:30;;;;;;;74.07;50.95;;;4.00;99.90;;;;;;4914412;29;20688;-76
2023/01/05 01:50:56;;;;;;;78.75;51.63;;;4.00;99.90;;;;;;4914260;29;20065;-76
2023/01/05 01:53:41;;;;;;;82.50;55.22;;;4.00;99.90;;;;;;4914085;29;20028;-76
2023/01/05 01:56:09;;;;;;;77.65;53.75;;;4.10;99.90;;;;;;4895205;29;20036;-75
2023/01/05 01:58:36;;;;;;;89.03;54.85;;;4.00;99.90;;;;;;4893614;29;20036;-75
2023/01/05 02:01:02;;;;;;;93.97;61.10;;;3.90;99.90;;;;;;4894551;29;20107;-74
2023/01/05 02:03:30;;;;;;;79.15;56.33;;;3.80;99.90;;;;;;4913388;29;20024;-75
2023/01/05 02:05:57;;;;;;;75.65;49.58;;;3.70;99.90;;;;;;4899892;29;20111;-75
2023/01/05 02:08:30;;;;;;;68.57;43.88;;;3.70;99.90;;;;;;4918831;29;20031;-75
2023/01/05 02:11:40;;;;;;;61.58;41.05;;;3.70;99.90;;;;;;4902134;29;20028;-75
2023/01/05 02:14:25;;;;;;;57.38;39.63;;;3.70;99.90;;;;;;4919129;29;20028;-74
2023/01/05 02:17:18;;;;;;;66.22;40.92;;;3.60;99.90;;;;;;4914116;29;20059;-74
2023/01/05 02:20:02;;;;;;;68.43;46.15;;;3.70;99.90;;;;;;4927124;29;20035;-74
2023/01/05 02:22:46;;;;;;;74.45;45.72;;;3.60;99.90;;;;;;4918723;29;20373;-75
2023/01/05 02:25:17;;;;;;;82.13;44.85;;;3.60;99.90;;;;;;4898568;29;20501;-73
2023/01/05 02:28:04;;;;;;;87.40;43.75;;;3.50;99.90;;;;;;4908866;29;20060;-75
2023/01/05 02:31:00;;;;;;;59.80;41.17;;;3.40;99.90;;;;;;4918359;29;20036;-75
2023/01/05 02:34:06;;;;;;;62.05;43.08;;;3.40;99.90;;;;;;4901409;29;20408;-74
2023/01/05 02:36:52;;;;;;;76.95;51.05;;;3.40;99.90;;;;;;4901571;29;20060;-74
2023/01/05 02:39:27;;;;;;;65.82;45.03;;;3.40;99.90;;;;;;4918749;29;20042;-73
2023/01/05 02:42:04;;;;;;;63.38;41.95;;;3.50;99.90;;;;;;4918395;29;20035;-75
2023/01/05 02:44:32;;;;;;;58.00;40.28;;;3.40;99.90;;;;;;4901349;29;20087;-76
2023/01/05 02:46:59;;;;;;;56.78;40.33;;;3.40;99.90;;;;;;4901298;29;20035;-75
2023/01/05 02:49:26;;;;;;;73.85;45.25;;;3.40;99.90;;;;;;4906561;29;20515;-76
2023/01/05 02:51:55;;;;;;;79.43;50.03;;;3.40;99.90;;;;;;4903741;29;20046;-75
2023/01/05 02:54:30;;;;;;;62.28;43.08;;;3.50;99.90;;;;;;4901544;29;20032;-75
2023/01/05 02:57:11;;;;;;;71.70;49.42;;;3.40;99.90;;;;;;4900835;29;20064;-74
2023/01/05 02:59:44;;;;;;;60.55;42.42;;;3.50;99.90;;;;;;4923864;29;20487;-77
2023/01/05 03:02:22;;;;;;;58.63;37.38;;;3.50;99.90;;;;;;4906229;29;20080;-75
2023/01/05 03:05:19;;;;;;;57.10;40.00;;;3.50;99.90;;;;;;4901207;29;20083;-74
2023/01/05 03:07:48;;;;;;;56.17;39.15;;;3.50;99.90;;;;;;4900182;29;20063;-74
2023/01/05 03:16:00;;;;;;;58.97;39.05;;;3.50;99.90;;;;;;4900145;29;20032;-77
2023/01/05 03:18:30;;;;;;;57.15;40.28;;;3.30;99.90;;;;;;4913376;29;20173;-76
2023/01/05 03:20:56;;;;;;;59.35;38.25;;;3.30;99.90;;;;;;4900506;29;20103;-75
2023/01/05 03:37:52;;;;;;;61.90;39.78;;;3.40;99.90;;;;;;4900578;29;20044;-76
2023/01/05 03:40:26;;;;;;;63.35;39.22;;;3.40;99.90;;;;;;4904372;29;20029;-76
2023/01/05 03:42:54;;;;;;;64.20;39.08;;;3.40;99.90;;;;;;4899276;29;20037;-76
2023/01/05 03:45:21;;;;;;;91.47;42.38;;;3.40;99.90;;;;;;4893713;29;20449;-76
2023/01/05 03:47:49;;;;;;;96.90;40.35;;;3.40;99.90;;;;;;4909505;29;20487;-76
2023/01/05 03:50:17;;;;;;;62.40;40.03;;;3.30;99.90;;;;;;4896007;29;20037;-73
2023/01/05 03:52:43;;;;;;;62.08;40.42;;;3.30;99.90;;;;;;4895660;29;20032;-74
2023/01/05 03:55:10;;;;;;;64.60;41.10;;;3.30;99.90;;;;;;4910116;29;20527;-74
2023/01/05 03:57:36;;;;;;;72.45;42.50;;;3.30;99.90;;;;;;4894204;29;20392;-74
2023/01/05 04:00:03;;;;;;;65.18;41.33;;;3.30;99.90;;;;;;4911110;29;20036;-74
2023/01/05 04:02:32;;;;;;;68.07;39.70;;;3.30;99.90;;;;;;4912770;29;20028;-76
2023/01/05 04:04:58;;;;;;;92.55;50.92;;;3.20;99.90;;;;;;4895345;29;20044;-75
2023/01/05 04:07:25;;;;;;;66.30;39.88;;;3.00;99.90;;;;;;4899782;29;20397;-73
2023/01/05 04:09:51;;;;;;;95.32;38.80;;;2.60;99.90;;;;;;4899913;29;20039;-74
2023/01/05 04:12:19;;;;;;;85.93;39.03;;;2.70;99.90;;;;;;4896435;29;20032;-74
2023/01/05 04:14:47;;;;;;;80.05;42.58;;;2.60;99.90;;;;;;4895008;29;20122;-74
2023/01/05 04:17:12;;;;;;;96.55;43.05;;;2.60;99.90;;;;;;4899536;29;20179;-74
2023/01/05 04:19:39;;;;;;;124.45;43.58;;;2.70;99.90;;;;;;4896628;29;20528;-75
2023/01/05 04:22:04;;;;;;;122.00;43.63;;;2.70;99.90;;;;;;4897025;29;20111;-74
2023/01/05 04:24:30;;;;;;;141.05;48.90;;;2.60;99.90;;;;;;4899804;29;20044;-74
2023/01/05 04:26:58;;;;;;;172.00;43.97;;;2.70;99.90;;;;;;4896319;29;20028;-74
2023/01/05 04:29:26;;;;;;;200.38;55.33;;;2.70;99.90;;;;;;4906875;29;20039;-73
2023/01/05 04:31:53;;;;;;;149.77;51.08;;;2.60;99.90;;;;;;4896155;29;20020;-74
2023/01/05 04:34:20;;;;;;;124.35;49.47;;;2.60;99.90;;;;;;4915010;29;20024;-74
2023/01/05 04:36:49;;;;;;;151.80;47.33;;;2.60;99.90;;;;;;4916458;29;20036;-74
2023/01/05 04:39:18;;;;;;;124.18;49.10;;;2.70;99.90;;;;;;4899679;29;20373;-74
2023/01/05 04:41:44;;;;;;;106.25;45.88;;;2.70;99.90;;;;;;4916176;29;20107;-75
2023/01/05 04:44:11;;;;;;;131.55;46.17;;;2.60;99.90;;;;;;4914480;29;20488;-74
2023/01/05 04:46:37;;;;;;;163.32;52.47;;;2.60;99.90;;;;;;4916130;29;20076;-74
2023/01/05 04:49:03;;;;;;;102.45;43.17;;;2.60;99.90;;;;;;4899257;29;20028;-73
2023/01/05 04:51:29;;;;;;;87.15;44.45;;;2.60;99.90;;;;;;4916290;29;20436;-74
2023/01/05 04:53:55;;;;;;;79.22;43.00;;;2.60;99.90;;;;;;4898791;29;20024;-74
2023/01/05 04:56:23;;;;;;;91.72;47.90;;;2.60;99.90;;;;;;4899002;29;20484;-75
2023/01/05 04:58:49;;;;;;;90.55;44.53;;;2.50;99.90;;;;;;4898081;29;20033;-74
2023/01/05 05:01:14;;;;;;;75.93;41.38;;;2.50;99.90;;;;;;4916022;29;20498;-75
2023/01/05 05:03:42;;;;;;;95.88;39.97;;;2.50;99.90;;;;;;4904123;29;20028;-74
2023/01/05 05:06:12;;;;;;;70.93;37.42;;;2.40;99.90;;;;;;4898410;29;20120;-74
2023/01/05 05:08:38;;;;;;;59.30;38.15;;;2.50;99.90;;;;;;4899121;29;20555;-74
2023/01/05 05:11:05;;;;;;;56.05;38.08;;;2.50;99.90;;;;;;4895580;29;20029;-73
2023/01/05 05:13:33;;;;;;;56.72;39.70;;;2.50;99.90;;;;;;4890165;29;20024;-74
2023/01/05 05:16:00;;;;;;;58.08;39.67;;;2.50;99.90;;;;;;4914846;29;20476;-74
2023/01/05 05:18:28;;;;;;;56.88;38.60;;;2.50;99.90;;;;;;4898716;29;20091;-75
2023/01/05 05:20:54;;;;;;;99.55;41.33;;;2.50;99.90;;;;;;4898874;29;20043;-74
2023/01/05 05:23:24;;;;;;;48.97;35.15;;;2.50;99.90;;;;;;4914697;29;20031;-73
2023/01/05 05:25:51;;;;;;;64.13;36.30;;;2.40;99.90;;;;;;4898790;29;20399;-76
2023/01/05 05:28:19;;;;;;;48.63;35.40;;;2.40;99.90;;;;;;4898450;29;20029;-73
2023/01/05 05:30:46;;;;;;;110.22;74.63;;;2.30;99.90;;;;;;4915691;29;20472;-74
2023/01/05 05:33:12;;;;;;;66.57;47.08;;;2.40;99.90;;;;;;4915500;29;20035;-73
2023/01/05 05:35:38;;;;;;;188.65;124.05;;;2.40;99.90;;;;;;4915771;29;20028;-75
2023/01/05 05:38:04;;;;;;;153.80;98.97;;;2.50;99.90;;;;;;4915196;29;20409;-74
2023/01/05 05:40:29;;;;;;;136.73;96.68;;;2.50;99.90;;;;;;4916426;29;20123;-74
2023/01/05 05:42:55;;;;;;;93.47;62.08;;;2.60;99.90;;;;;;4919520;29;20040;-74
2023/01/05 05:45:21;;;;;;;79.25;54.00;;;2.60;99.90;;;;;;4919804;29;20428;-73
2023/01/05 05:47:47;;;;;;;90.95;62.38;;;2.60;99.90;;;;;;4918915;29;20028;-74
2023/01/05 05:50:13;;;;;;;98.18;66.15;;;2.60;99.90;;;;;;4919496;29;20048;-74
2023/01/05 05:52:38;;;;;;;90.80;59.70;;;2.60;99.90;;;;;;4919192;29;20024;-74
2023/01/05 05:55:05;;;;;;;101.38;69.53;;;2.60;99.90;;;;;;4919268;29;20114;-74
2023/01/05 05:57:31;;;;;;;115.47;65.45;;;2.60;99.90;;;;;;4919337;29;20103;-74
2023/01/05 05:59:56;;;;;;;113.57;58.00;;;2.60;99.90;;;;;;4918968;29;20476;-74
2023/01/05 06:02:22;;;;;;;101.70;52.13;;;2.60;99.90;;;;;;4919055;29;20032;-75
2023/01/05 06:04:48;;;;;;;105.00;53.55;;;2.50;99.90;;;;;;4919103;29;20472;-73
2023/01/05 06:07:14;;;;;;;145.15;52.65;;;2.50;99.90;;;;;;4918843;29;20148;-72
2023/01/05 06:09:39;;;;;;;84.57;44.97;;;2.50;99.90;;;;;;4918490;29;20060;-73
2023/01/05 06:12:06;;;;;;;99.13;48.17;;;2.50;99.90;;;;;;4918446;29;20020;-74
2023/01/05 06:14:31;;;;;;;107.60;47.17;;;2.50;99.90;;;;;;4919062;29;20047;-75
2023/01/05 06:16:57;;;;;;;108.93;44.47;;;2.50;99.90;;;;;;4918965;29;20021;-75
2023/01/05 06:19:23;;;;;;;112.40;44.72;;;2.40;99.90;;;;;;4918981;29;20032;-74
2023/01/05 06:21:49;;;;;;;113.05;46.53;;;2.40;99.90;;;;;;4918511;29;20040;-75
2023/01/05 06:24:15;;;;;;;75.90;48.63;;;2.40;99.90;;;;;;4918733;29;20063;-75
2023/01/05 06:26:40;;;;;;;84.07;45.55;;;2.40;99.90;;;;;;4918470;29;20040;-74
2023/01/05 06:29:06;;;;;;;73.88;43.72;;;2.40;99.90;;;;;;4919166;29;20055;-75
2023/01/05 06:31:32;;;;;;;211.35;72.00;;;2.40;99.90;;;;;;4918319;29;20036;-74
2023/01/05 06:33:58;;;;;;;117.00;58.92;;;2.30;99.90;;;;;;4918761;29;20028;-75
2023/01/05 06:36:24;;;;;;;122.55;75.93;;;2.30;99.90;;;;;;4918582;29;20107;-73
2023/01/05 06:38:50;;;;;;;162.02;75.85;;;2.40;99.90;;;;;;4918665;29;20036;-73
2023/01/05 06:41:16;;;;;;;83.70;55.90;;;2.50;99.90;;;;;;4918534;29;20040;-74
2023/01/05 06:43:41;;;;;;;77.30;53.08;;;2.50;99.90;;;;;;4918373;29;20127;-75
2023/01/05 06:46:07;;;;;;;77.88;52.63;;;2.70;99.90;;;;;;4918240;29;20067;-75
2023/01/05 06:48:33;;;;;;;105.60;58.65;;;2.80;99.90;;;;;;4918110;29;20032;-73
2023/01/05 06:50:59;;;;;;;101.55;63.47;;;2.80;99.90;;;;;;4917965;29;20484;-74
2023/01/05 06:53:25;;;;;;;94.78;61.17;;;2.90;99.90;;;;;;4918110;29;20025;-75
2023/01/05 06:55:50;;;;;;;123.55;78.72;;;2.90;99.90;;;;;;4901606;29;20032;-74
2023/01/05 06:58:16;;;;;;;123.30;81.13;;;3.00;99.90;;;;;;4918112;29;20047;-76
2023/01/05 07:00:42;;;;;;;114.43;67.40;;;3.10;99.90;;;;;;4918273;29;20032;-75
2023/01/05 07:03:12;;;;;;;101.10;69.80;;;3.20;99.90;;;;;;4918333;29;20437;-75
2023/01/05 07:05:39;;;;;;;138.60;92.53;;;3.20;99.90;;;;;;4917809;29;20552;-75
2023/01/05 07:08:04;;;;;;;107.22;74.95;;;3.30;99.90;;;;;;4918013;29;20040;-75
2023/01/05 07:10:31;;;;;;;97.00;71.22;;;3.40;99.90;;;;;;4918187;29;20040;-75
2023/01/05 07:12:57;;;;;;;111.43;76.65;;;3.40;99.90;;;;;;4917865;29;20028;-74
2023/01/05 07:15:23;;;;;;;97.63;64.30;;;3.40;99.90;;;;;;4917179;29;20150;-74
2023/01/05 07:17:49;;;;;;;97.93;70.50;;;3.40;99.90;;;;;;4918154;29;20478;-75
2023/01/05 07:20:15;;;;;;;113.38;75.07;;;3.50;99.90;;;;;;4917779;29;20084;-75
2023/01/05 07:22:40;;;;;;;89.45;57.40;;;3.60;99.90;;;;;;4918339;29;20028;-75
2023/01/05 07:25:07;;;;;;;86.53;56.65;;;3.60;99.90;;;;;;4917541;29;20028;-74
2023/01/05 07:27:33;;;;;;;90.97;61.30;;;3.70;99.90;;;;;;4926540;29;20082;-75
2023/01/05 07:29:59;;;;;;;88.78;62.92;;;3.70;99.90;;;;;;4921292;29;21116;-75
2023/01/05 07:32:25;;;;;;;86.78;58.83;;;3.80;99.90;;;;;;4917717;29;20032;-74
2023/01/05 07:34:51;;;;;;;96.18;65.18;;;3.90;99.90;;;;;;4917408;29;20032;-75
2023/01/05 07:37:17;;;;;;;115.32;76.82;;;4.00;99.90;;;;;;4917596;29;20028;-74
2023/01/05 07:39:44;;;;;;;112.03;74.47;;;4.10;99.90;;;;;;4917079;29;20028;-75
2023/01/05 07:42:10;;;;;;;107.88;74.65;;;4.10;99.90;;;;;;4917411;29;20457;-74
2023/01/05 07:44:36;;;;;;;110.85;74.60;;;4.20;99.90;;;;;;4917215;29;20039;-76
2023/01/05 07:47:03;;;;;;;101.25;70.30;;;4.10;99.90;;;;;;4916989;29;20032;-74
2023/01/05 07:49:29;;;;;;;101.50;63.35;;;4.20;99.90;;;;;;4917145;29;20599;-75
2023/01/05 07:51:55;;;;;;;80.20;55.65;;;4.20;99.90;;;;;;4917343;29;20111;-75
2023/01/05 07:54:21;;;;;;;100.60;71.22;;;4.30;99.90;;;;;;4916837;29;20036;-75
2023/01/05 07:56:47;;;;;;;113.32;85.43;;;4.30;99.90;;;;;;4916810;29;20467;-74
2023/01/05 07:59:13;;;;;;;84.93;61.08;;;4.30;99.90;;;;;;4917208;29;20038;-75
2023/01/05 08:01:38;;;;;;;79.88;57.53;;;4.20;99.90;;;;;;4917112;29;20095;-75
2023/01/05 08:04:04;;;;;;;79.60;58.42;;;4.10;99.90;;;;;;4916095;29;20120;-76
2023/01/05 08:06:30;;;;;;;86.40;62.20;;;4.10;99.90;;;;;;4916385;29;20063;-75
2023/01/05 08:10:27;;;;;;;96.25;66.75;;;4.10;99.90;;;;;;4916762;29;20428;-74
2023/01/05 08:11:42;;;;;;;147.25;113.72;;;4.10;99.90;;;;;;4916981;29;20036;-75
2023/01/05 08:14:08;;;;;;;152.68;108.63;;;4.00;99.90;;;;;;4916644;29;20039;-75
2023/01/05 08:16:34;;;;;;;161.60;119.05;;;3.90;99.90;;;;;;4916902;29;20028;-75
2023/01/05 08:18:59;;;;;;;150.95;98.82;;;4.00;99.90;;;;;;4916580;29;20028;-74
2023/01/05 08:21:26;;;;;;;130.82;87.57;;;4.00;99.90;;;;;;4917168;29;20080;-74
2023/01/05 08:23:52;;;;;;;118.38;80.40;;;4.00;99.90;;;;;;4916963;29;20582;-75
2023/01/05 08:26:21;;;;;;;102.97;75.30;;;4.10;99.90;;;;;;4916503;29;20068;-75
2023/01/05 08:28:47;;;;;;;101.88;74.57;;;4.20;99.90;;;;;;4915823;29;20102;-74
2023/01/05 08:31:19;;;;;;;104.75;74.53;;;4.40;99.90;;;;;;4916556;29;20050;-74
2023/01/05 08:33:45;;;;;;;122.18;87.53;;;4.60;99.90;;;;;;4916564;29;20132;-73
2023/01/05 08:36:13;;;;;;;109.30;82.18;;;4.80;99.90;;;;;;4916401;29;20107;-73
2023/01/05 08:38:47;;;;;;;93.50;69.85;;;5.00;99.90;;;;;;4926387;29;20031;-72
2023/01/05 08:41:22;;;;;;;;;;;5.20;99.90;;;;;;4915873;29;20392;-72
2023/01/05 08:43:57;;;;;;;105.13;80.05;;;5.30;99.90;;;;;;4917899;29;19911;-74
2023/01/05 08:46:26;;;;;;;109.20;80.30;;;5.40;99.90;;;;;;4916263;29;20043;-73
2023/01/05 08:48:54;;;;;;;85.28;59.80;;;5.60;99.90;;;;;;4915299;29;20039;-75
2023/01/05 08:51:21;;;;;;;77.75;57.28;;;5.70;99.90;;;;;;4916032;29;20571;-73
2023/01/05 08:53:47;;;;;;;76.93;56.05;;;5.90;99.90;;;;;;4916074;29;20469;-73
2023/01/05 08:56:13;;;;;;;78.70;57.17;;;6.10;99.90;;;;;;4916343;29;20039;-72
2023/01/05 08:58:40;;;;;;;90.97;66.00;;;6.30;99.90;;;;;;4915587;29;20556;-74
2023/01/05 09:01:14;;;;;;;88.50;62.72;;;6.50;99.90;;;;;;4916004;29;20048;-72
2023/01/05 09:03:40;;;;;;;67.60;51.55;;;6.70;99.90;;;;;;4916069;29;20392;-74
2023/01/05 09:06:10;;;;;;;70.63;48.70;;;6.90;99.90;;;;;;4915752;29;20522;-73
2023/01/05 09:08:37;;;;;;;74.20;51.70;;;6.90;99.90;;;;;;4915957;29;20028;-73
2023/01/05 09:11:15;;;;;;;79.22;52.38;;;7.10;99.90;;;;;;4915786;29;20032;-73
2023/01/05 09:13:44;;;;;;;72.20;51.13;;;7.20;99.90;;;;;;4916093;29;20067;-73
2023/01/05 09:16:12;;;;;;;70.72;51.40;;;7.50;99.90;;;;;;4915774;29;20026;-72
2023/01/05 09:18:39;;;;;;;67.85;49.95;;;7.60;99.90;;;;;;4914988;29;20131;-73
2023/01/05 09:21:06;;;;;;;71.07;51.22;;;7.70;99.90;;;;;;4916499;29;20368;-73
2023/01/05 09:23:33;;;;;;;68.72;50.22;;;7.90;99.90;;;;;;4928335;29;20107;-73
2023/01/05 09:25:59;;;;;;;69.25;48.03;;;7.90;99.90;;;;;;4916111;29;20076;-73
2023/01/05 09:28:24;;;;;;;66.30;45.10;;;8.00;99.90;;;;;;4915228;29;20036;-73
2023/01/05 09:30:50;;;;;;;56.72;38.05;;;8.10;99.90;;;;;;4915689;29;20384;-73
2023/01/05 09:33:16;;;;;;;53.35;32.55;;;7.90;99.90;;;;;;4898342;29;20132;-74
2023/01/05 09:35:42;;;;;;;56.95;35.03;;;7.90;99.90;;;;;;4915552;29;20028;-73
2023/01/05 09:38:08;;;;;;;42.60;30.25;;;7.70;99.90;;;;;;4915691;29;20024;-74
2023/01/05 09:40:40;;;;;;;48.90;34.03;;;7.60;99.90;;;;;;4914771;29;20032;-73
2023/01/05 09:43:09;;;;;;;42.72;29.48;;;7.90;99.90;;;;;;4915365;29;20237;-74
2023/01/05 09:45:35;;;;;;;35.72;23.33;;;7.70;99.90;;;;;;4915505;29;20076;-74
2023/01/05 09:48:02;;;;;;;32.33;20.95;;;7.60;99.90;;;;;;4915720;29;20028;-73
2023/01/05 09:50:31;;;;;;;37.17;23.98;;;7.70;99.90;;;;;;4915128;29;20084;-72
2023/01/05 09:52:59;;;;;;;38.17;25.83;;;7.90;99.90;;;;;;4915602;29;20021;-73
2023/01/05 09:55:28;;;;;;;36.65;24.92;;;7.90;99.90;;;;;;4915576;29;20028;-74
2023/01/05 09:58:05;;;;;;;35.75;24.38;;;7.90;99.90;;;;;;4914767;29;20024;-73
2023/01/05 10:00:32;;;;;;;35.88;25.52;;;7.90;99.90;;;;;;4915714;29;20381;-74
2023/01/05 10:03:04;;;;;;;35.28;24.08;;;8.00;99.90;;;;;;4922676;29;20491;-74
2023/01/05 10:05:32;;;;;;;41.05;27.00;;;8.20;99.90;;;;;;4919684;29;20396;-73
2023/01/05 10:08:06;;;;;;;42.97;25.77;;;8.40;99.90;;;;;;4915984;29;20487;-73
2023/01/05 10:13:01;;;;;;;42.63;27.33;;;8.60;99.90;;;;;;4914631;29;20055;-74
2023/01/05 10:13:35;;;;;;;38.20;26.85;;;8.80;99.90;;;;;;4913601;29;20075;-74
2023/01/05 10:16:03;;;;;;;39.13;27.17;;;8.90;99.90;;;;;;4915424;29;20024;-73
2023/01/05 10:18:30;;;;;;;40.10;26.75;;;8.70;99.90;;;;;;4915216;29;20044;-73
2023/01/05 10:21:09;;;;;;;39.80;27.48;;;8.80;99.90;;;;;;4923104;29;20498;-73
2023/01/05 10:23:41;;;;;;;36.97;26.98;;;9.10;99.90;;;;;;4918161;29;20024;-75
2023/01/05 10:26:23;;;;;;;44.05;29.17;;;9.20;99.90;;;;;;4914254;29;20036;-73
2023/01/05 10:29:05;;;;;;;45.05;28.50;;;9.40;99.90;;;;;;4918010;29;20374;-73
2023/01/05 10:31:45;;;;;;;39.83;29.13;;;9.50;99.90;;;;;;4917758;29;20361;-74
2023/01/05 10:34:21;;;;;;;50.03;31.58;;;9.70;99.90;;;;;;4920308;29;20036;-73
2023/01/05 10:37:06;;;;;;;46.58;30.52;;;9.80;99.90;;;;;;4917002;29;20034;-73
2023/01/05 10:39:51;;;;;;;43.78;32.55;;;9.90;99.90;;;;;;4916372;29;20032;-74
2023/01/05 10:42:54;;;;;;;42.88;31.40;;;9.90;99.90;;;;;;4911124;29;20048;-74
2023/01/05 10:45:20;;;;;;;47.83;31.10;;;10.10;99.90;;;;;;4915476;29;20047;-74
2023/01/05 10:47:48;;;;;;;46.28;33.67;;;10.20;99.90;;;;;;4916671;29;20028;-73
2023/01/05 10:50:26;;;;;;;52.80;34.60;;;10.10;99.90;;;;;;4918251;29;20036;-74
2023/01/05 10:52:53;;;;;;;57.72;38.75;;;10.30;99.90;;;;;;4905826;29;20035;-73
2023/01/05 10:55:20;;;;;;;59.00;41.33;;;10.30;99.90;;;;;;4918709;29;20075;-74
2023/01/05 10:57:46;;;;;;;58.47;42.22;;;10.40;99.90;;;;;;4930830;29;20365;-73
2023/01/05 11:00:17;;;;;;;64.43;46.35;;;10.30;99.90;;;;;;4917822;29;20068;-74
2023/01/05 11:02:57;;;;;;;68.72;47.33;;;10.50;99.90;;;;;;4917176;29;20028;-73
2023/01/05 11:05:31;;;;;;;43.40;29.40;;;10.50;99.90;;;;;;4907786;29;20127;-73
2023/01/05 11:08:17;;;;;;;29.90;20.70;;;10.60;99.90;;;;;;4918001;29;20433;-73
2023/01/05 11:10:52;;;;;;;35.15;23.27;;;10.60;99.90;;;;;;4917946;29;20432;-74
2023/01/05 11:13:34;;;;;;;36.38;24.50;;;10.50;99.90;;;;;;4905605;29;20084;-74
2023/01/05 11:16:07;;;;;;;36.20;26.52;;;10.40;99.90;;;;;;4918187;29;20388;-74
2023/01/05 11:18:35;;;;;;;38.13;27.05;;;10.30;99.90;;;;;;4917822;29;20055;-73
2023/01/05 11:21:34;;;;;;;42.30;27.15;;;10.30;99.90;;;;;;4917940;29;20024;-73
2023/01/05 11:24:02;;;;;;;43.83;28.33;;;10.30;99.90;;;;;;4917319;29;20036;-73
2023/01/05 11:26:33;;;;;;;43.75;30.77;;;10.30;99.90;;;;;;4917899;29;20123;-74
2023/01/05 11:29:07;;;;;;;43.47;29.98;;;10.40;99.90;;;;;;4935356;29;20387;-74
2023/01/05 11:31:36;;;;;;;42.78;30.33;;;10.60;99.90;;;;;;4921802;29;20051;-73
2023/01/05 11:34:14;;;;;;;46.15;28.83;;;10.60;99.90;;;;;;4917750;29;20111;-73
2023/01/05 11:36:41;;;;;;;43.38;29.85;;;10.80;99.90;;;;;;4917546;29;20035;-73
2023/01/05 11:39:20;;;;;;;46.53;32.40;;;10.80;99.90;;;;;;4917020;29;20385;-74
2023/01/05 11:41:46;;;;;;;42.95;30.85;;;10.90;99.90;;;;;;4913815;29;20025;-74
2023/01/05 11:44:23;;;;;;;50.80;31.63;;;11.00;99.90;;;;;;4917399;29;20091;-73
2023/01/05 11:46:49;;;;;;;47.08;31.88;;;11.00;99.90;;;;;;4918407;29;20036;-74
2023/01/05 11:49:19;;;;;;;44.97;30.35;;;11.10;99.90;;;;;;4918566;29;20107;-74
2023/01/05 11:51:44;;;;;;;48.97;33.65;;;11.20;99.90;;;;;;4918532;29;20028;-74
2023/01/05 11:54:35;;;;;;;47.97;35.55;;;11.30;99.90;;;;;;4918517;29;20116;-74
2023/01/05 11:57:18;;;;;;;48.47;36.38;;;11.40;99.90;;;;;;4918833;29;20032;-73
2023/01/05 11:59:45;;;;;;;55.97;38.08;;;11.30;99.90;;;;;;4918255;29;20175;-73
2023/01/05 12:02:49;;;;;;;49.47;37.88;;;11.50;99.90;;;;;;4918009;29;20038;-75
2023/01/05 12:05:34;;;;;;;58.33;40.83;;;11.50;99.90;;;;;;4841254;29;20144;-73
2023/01/05 12:08:14;;;;;;;60.83;43.63;;;11.50;99.90;;;;;;4859865;29;20124;-73
2023/01/05 12:10:42;;;;;;;60.13;43.38;;;11.60;99.90;;;;;;4860019;29;20042;-73
2023/01/05 12:13:37;;;;;;;59.28;42.15;;;11.70;99.90;;;;;;4859896;29;20038;-73
2023/01/05 12:16:27;;;;;;;63.20;46.38;;;11.80;99.90;;;;;;4859765;29;20056;-73
2023/01/05 12:19:20;;;;;;;64.40;46.95;;;11.90;99.90;;;;;;4859532;29;20044;-73
2023/01/05 12:22:12;;;;;;;73.63;50.30;;;12.00;99.90;;;;;;4859535;29;20132;-75
2023/01/05 12:24:52;;;;;;;76.43;57.67;;;12.10;99.90;;;;;;4844811;29;20057;-73
2023/01/05 12:27:28;;;;;;;82.75;59.25;;;12.10;99.90;;;;;;4841045;29;20128;-73
2023/01/05 12:30:02;;;;;;;82.45;61.63;;;12.10;99.90;;;;;;4832804;29;20050;-73
2023/01/05 12:32:31;;;;;;;92.10;66.32;;;12.20;99.90;;;;;;4836712;29;20041;-74
2023/01/05 12:35:24;;;;;;;92.63;71.82;;;12.20;99.90;;;;;;4849906;29;20073;-73
2023/01/05 12:38:14;;;;;;;94.10;70.03;;;12.30;99.90;;;;;;4822764;29;20030;-74
2023/01/05 12:40:42;;;;;;;95.88;73.93;;;12.30;99.90;;;;;;4825284;29;20031;-73
2023/01/05 12:43:14;;;;;;;106.57;76.63;;;12.30;99.90;;;;;;4859199;29;20041;-74
2023/01/05 12:46:23;;;;;;;107.82;74.65;;;12.30;99.90;;;;;;4859101;29;20049;-73
2023/01/05 12:49:00;;;;;;;99.93;72.72;;;12.30;99.90;;;;;;4829741;29;20054;-73
2023/01/05 12:51:35;;;;;;;98.40;69.43;;;12.30;99.90;;;;;;4840380;29;20030;-73
2023/01/05 12:54:19;;;;;;;97.93;67.68;;;12.20;99.90;;;;;;4835020;29;20050;-74
2023/01/05 12:56:55;;;;;;;88.05;67.05;;;12.10;99.90;;;;;;4838706;29;20539;-73
2023/01/05 12:59:23;;;;;;;91.20;66.00;;;12.00;99.90;;;;;;4840370;29;20054;-73
2023/01/05 13:02:02;;;;;;;90.63;68.10;;;12.00;99.90;;;;;;4855861;29;20051;-73
2023/01/05 13:04:39;;;;;;;86.65;60.22;;;12.00;99.90;;;;;;4876473;29;20037;-74
2023/01/05 13:07:18;;;;;;;85.13;59.95;;;11.90;99.90;;;;;;4871464;29;20085;-74
2023/01/05 13:09:51;;;;;;;85.65;59.83;;;11.90;99.90;;;;;;4883724;29;20120;-73
2023/01/05 13:12:18;;;;;;;79.72;58.92;;;11.90;99.90;;;;;;4877023;29;20072;-74
2023/01/05 13:14:58;;;;;;;78.75;54.25;;;11.80;99.90;;;;;;4880213;29;20585;-73
2023/01/05 13:17:31;;;;;;;74.00;55.42;;;11.80;99.90;;;;;;4888582;29;20037;-73
2023/01/05 13:20:47;;;;;;;73.90;55.03;;;11.80;99.90;;;;;;4877105;29;20048;-74
2023/01/05 13:23:39;;;;;;;75.40;56.47;;;11.70;99.90;;;;;;4858505;29;20050;-74